TAM3576 SBGR-SBCY
Flight info
| Callsign | TAM3576 |
|---|---|
| Flight time | 1h 46m |
| Altitude | 34000 |
| Route | GERTU UL201 PANAB DCT RODAD UM775 SINIP |
| Aircraft | A321/M-SDE3FGHIRWY/LB1 |
Departure
| Time | 2026-04-21 02:23 |
|---|---|
| Airport | São Paulo/Guarulhos–Governor André Franco Montoro International Airport (SBGR) |
Arrival
| Time | 2026-04-21 04:09 |
|---|---|
| Airport | Várzea Grande–Marechal Rondon International Airport (SBCY) |
| Time | Latitude | Longitude | Altitude | Speed | Heading |
|---|---|---|---|---|---|
| 2026-04-21 01:30 | -23.42811 | -46.48239 | 2469 ft | 0 kts | 266° |
| 2026-04-21 02:14 | -23.42811 | -46.48237 | 2469 ft | 2 kts | 266° |
| 2026-04-21 02:14 | -23.42810 | -46.48220 | 2469 ft | 2 kts | 266° |
| 2026-04-21 02:14 | -23.42809 | -46.48205 | 2469 ft | 0 kts | 265° |
| 2026-04-21 02:14 | -23.42807 | -46.48194 | 2469 ft | 2 kts | 242° |
| 2026-04-21 02:15 | -23.42797 | -46.48182 | 2469 ft | 2 kts | 206° |
| 2026-04-21 02:15 | -23.42785 | -46.48179 | 2469 ft | 0 kts | 177° |
| 2026-04-21 02:15 | -23.42779 | -46.48180 | 2469 ft | 1 kts | 173° |
| 2026-04-21 02:15 | -23.42777 | -46.48180 | 2469 ft | 0 kts | 173° |
| 2026-04-21 02:17 | -23.42787 | -46.48179 | 2469 ft | 4 kts | 173° |
| 2026-04-21 02:17 | -23.42830 | -46.48170 | 2469 ft | 6 kts | 167° |
| 2026-04-21 02:18 | -23.42872 | -46.48160 | 2469 ft | 5 kts | 167° |
| 2026-04-21 02:18 | -23.42911 | -46.48151 | 2469 ft | 5 kts | 167° |
| 2026-04-21 02:18 | -23.42944 | -46.48144 | 2469 ft | 4 kts | 172° |
| 2026-04-21 02:18 | -23.42969 | -46.48141 | 2469 ft | 4 kts | 174° |
| 2026-04-21 02:19 | -23.42988 | -46.48138 | 2468 ft | 4 kts | 174° |
| 2026-04-21 02:19 | -23.43009 | -46.48136 | 2469 ft | 3 kts | 174° |
| 2026-04-21 02:19 | -23.43032 | -46.48134 | 2469 ft | 3 kts | 174° |
| 2026-04-21 02:19 | -23.43054 | -46.48132 | 2469 ft | 4 kts | 174° |
| 2026-04-21 02:20 | -23.43088 | -46.48128 | 2468 ft | 4 kts | 174° |
| 2026-04-21 02:20 | -23.43118 | -46.48123 | 2469 ft | 4 kts | 167° |
| 2026-04-21 02:20 | -23.43145 | -46.48116 | 2469 ft | 3 kts | 164° |
| 2026-04-21 02:20 | -23.43167 | -46.48109 | 2468 ft | 3 kts | 163° |
| 2026-04-21 02:21 | -23.43186 | -46.48103 | 2468 ft | 2 kts | 163° |
| 2026-04-21 02:21 | -23.43201 | -46.48098 | 2468 ft | 2 kts | 163° |
| 2026-04-21 02:21 | -23.43218 | -46.48093 | 2468 ft | 6 kts | 163° |
| 2026-04-21 02:21 | -23.43284 | -46.48072 | 2468 ft | 10 kts | 164° |
| 2026-04-21 02:22 | -23.43340 | -46.48035 | 2468 ft | 9 kts | 109° |
| 2026-04-21 02:22 | -23.43325 | -46.47945 | 2468 ft | 24 kts | 74° |
| 2026-04-21 02:22 | -23.43212 | -46.47527 | 2469 ft | 91 kts | 73° |
| 2026-04-21 02:22 | -23.42973 | -46.46643 | 2469 ft | 150 kts | 73° |
| 2026-04-21 02:23 | -23.42631 | -46.45381 | 2560 ft | 189 kts | 75° |
| 2026-04-21 02:23 | -23.42258 | -46.44011 | 3160 ft | 190 kts | 71° |
| 2026-04-21 02:23 | -23.41475 | -46.42801 | 3498 ft | 207 kts | 42° |
| 2026-04-21 02:23 | -23.40255 | -46.41859 | 3817 ft | 223 kts | 35° |
| 2026-04-21 02:24 | -23.38895 | -46.40889 | 4059 ft | 244 kts | 35° |
| 2026-04-21 02:24 | -23.37503 | -46.39786 | 4653 ft | 248 kts | 41° |
| 2026-04-21 02:24 | -23.36223 | -46.38510 | 5219 ft | 255 kts | 46° |
| 2026-04-21 02:24 | -23.34952 | -46.37119 | 5591 ft | 270 kts | 47° |
| 2026-04-21 02:25 | -23.33617 | -46.35636 | 6172 ft | 277 kts | 48° |
| 2026-04-21 02:25 | -23.32134 | -46.34282 | 6824 ft | 284 kts | 28° |
| 2026-04-21 02:25 | -23.30225 | -46.33887 | 7663 ft | 282 kts | 353° |
| 2026-04-21 02:25 | -23.28440 | -46.34633 | 8456 ft | 277 kts | 323° |
| 2026-04-21 02:26 | -23.27102 | -46.36172 | 8828 ft | 288 kts | 303° |
| 2026-04-21 02:26 | -23.25949 | -46.38018 | 9212 ft | 300 kts | 303° |
| 2026-04-21 02:26 | -23.24757 | -46.39877 | 9781 ft | 303 kts | 304° |
| 2026-04-21 02:26 | -23.23524 | -46.41743 | 10365 ft | 306 kts | 304° |
| 2026-04-21 02:27 | -23.22243 | -46.43641 | 10700 ft | 318 kts | 305° |
| 2026-04-21 02:27 | -23.20890 | -46.45615 | 10955 ft | 333 kts | 305° |
| 2026-04-21 02:27 | -23.19474 | -46.47666 | 11283 ft | 344 kts | 306° |
| 2026-04-21 02:27 | -23.18023 | -46.49755 | 11773 ft | 348 kts | 306° |
| 2026-04-21 02:28 | -23.16558 | -46.51859 | 12302 ft | 351 kts | 306° |
| 2026-04-21 02:28 | -23.15081 | -46.53978 | 12798 ft | 354 kts | 306° |
| 2026-04-21 02:28 | -23.13590 | -46.56114 | 13298 ft | 356 kts | 306° |
| 2026-04-21 02:28 | -23.12086 | -46.58267 | 13775 ft | 359 kts | 306° |
| 2026-04-21 02:29 | -23.10570 | -46.60435 | 14269 ft | 362 kts | 306° |
| 2026-04-21 02:29 | -23.09046 | -46.62616 | 14749 ft | 364 kts | 306° |
| 2026-04-21 02:29 | -23.07513 | -46.64807 | 15239 ft | 366 kts | 306° |
| 2026-04-21 02:29 | -23.05987 | -46.66987 | 15722 ft | 367 kts | 306° |
| 2026-04-21 02:30 | -23.04438 | -46.69199 | 16213 ft | 368 kts | 306° |
| 2026-04-21 02:30 | -23.02887 | -46.71415 | 16690 ft | 369 kts | 306° |
| 2026-04-21 02:30 | -23.01331 | -46.73636 | 17158 ft | 370 kts | 306° |
| 2026-04-21 02:30 | -22.99764 | -46.75871 | 17621 ft | 372 kts | 307° |
| 2026-04-21 02:31 | -22.98216 | -46.78079 | 18062 ft | 373 kts | 306° |
| 2026-04-21 02:31 | -22.96638 | -46.80327 | 18501 ft | 375 kts | 306° |
| 2026-04-21 02:31 | -22.95053 | -46.82586 | 18940 ft | 377 kts | 306° |
| 2026-04-21 02:31 | -22.93462 | -46.84852 | 19370 ft | 378 kts | 306° |
| 2026-04-21 02:32 | -22.91865 | -46.87126 | 19791 ft | 380 kts | 306° |
| 2026-04-21 02:32 | -22.90261 | -46.89409 | 20212 ft | 381 kts | 306° |
| 2026-04-21 02:32 | -22.88649 | -46.91701 | 20640 ft | 383 kts | 306° |
| 2026-04-21 02:32 | -22.87028 | -46.94009 | 21047 ft | 384 kts | 306° |
| 2026-04-21 02:33 | -22.85392 | -46.96335 | 21448 ft | 386 kts | 306° |
| 2026-04-21 02:33 | -22.83741 | -46.98680 | 21838 ft | 388 kts | 306° |
| 2026-04-21 02:33 | -22.82096 | -47.01015 | 22213 ft | 390 kts | 306° |
| 2026-04-21 02:33 | -22.80443 | -47.03361 | 22574 ft | 392 kts | 306° |
| 2026-04-21 02:34 | -22.78803 | -47.05687 | 22920 ft | 395 kts | 306° |
| 2026-04-21 02:34 | -22.77131 | -47.08058 | 23280 ft | 396 kts | 306° |
| 2026-04-21 02:34 | -22.75452 | -47.10437 | 23635 ft | 398 kts | 306° |
| 2026-04-21 02:34 | -22.73771 | -47.12820 | 23973 ft | 399 kts | 306° |
| 2026-04-21 02:35 | -22.72079 | -47.15218 | 24301 ft | 401 kts | 306° |
| 2026-04-21 02:35 | -22.70398 | -47.17598 | 24604 ft | 403 kts | 306° |
| 2026-04-21 02:35 | -22.68684 | -47.20022 | 24905 ft | 406 kts | 306° |
| 2026-04-21 02:35 | -22.66962 | -47.22458 | 25196 ft | 408 kts | 306° |
| 2026-04-21 02:36 | -22.65228 | -47.24911 | 25485 ft | 410 kts | 306° |
| 2026-04-21 02:36 | -22.63486 | -47.27373 | 25773 ft | 413 kts | 306° |
| 2026-04-21 02:36 | -22.61757 | -47.29815 | 26054 ft | 415 kts | 306° |
| 2026-04-21 02:36 | -22.59999 | -47.32298 | 26324 ft | 417 kts | 306° |
| 2026-04-21 02:37 | -22.58227 | -47.34796 | 26589 ft | 419 kts | 306° |
| 2026-04-21 02:37 | -22.56445 | -47.37309 | 26862 ft | 421 kts | 306° |
| 2026-04-21 02:37 | -22.54658 | -47.39830 | 27128 ft | 423 kts | 306° |
| 2026-04-21 02:37 | -22.52859 | -47.42367 | 27384 ft | 425 kts | 306° |
| 2026-04-21 02:38 | -22.51051 | -47.44915 | 27635 ft | 427 kts | 306° |
| 2026-04-21 02:38 | -22.49240 | -47.47467 | 27890 ft | 428 kts | 305° |
| 2026-04-21 02:38 | -22.47447 | -47.49992 | 28143 ft | 430 kts | 306° |
| 2026-04-21 02:38 | -22.45618 | -47.52565 | 28394 ft | 431 kts | 305° |
| 2026-04-21 02:39 | -22.43758 | -47.55129 | 28627 ft | 434 kts | 307° |
| 2026-04-21 02:39 | -22.41769 | -47.57596 | 28843 ft | 437 kts | 311° |
| 2026-04-21 02:39 | -22.39665 | -47.59975 | 29076 ft | 439 kts | 312° |
| 2026-04-21 02:39 | -22.37533 | -47.62350 | 29303 ft | 441 kts | 312° |
| 2026-04-21 02:40 | -22.35391 | -47.64734 | 29529 ft | 443 kts | 312° |
| 2026-04-21 02:40 | -22.33236 | -47.67133 | 29848 ft | 442 kts | 312° |
| 2026-04-21 02:40 | -22.31117 | -47.69491 | 30194 ft | 441 kts | 312° |
| 2026-04-21 02:40 | -22.28977 | -47.71874 | 30523 ft | 440 kts | 312° |
| 2026-04-21 02:41 | -22.26848 | -47.74246 | 30857 ft | 439 kts | 312° |
| 2026-04-21 02:41 | -22.24720 | -47.76615 | 31174 ft | 439 kts | 312° |
| 2026-04-21 02:41 | -22.22592 | -47.78984 | 31474 ft | 438 kts | 311° |
| 2026-04-21 02:41 | -22.20499 | -47.81315 | 31769 ft | 438 kts | 311° |
| 2026-04-21 02:42 | -22.18376 | -47.83677 | 32051 ft | 438 kts | 311° |
| 2026-04-21 02:42 | -22.16256 | -47.86035 | 32332 ft | 437 kts | 311° |
| 2026-04-21 02:42 | -22.14137 | -47.88392 | 32615 ft | 437 kts | 311° |
| 2026-04-21 02:42 | -22.12021 | -47.90743 | 32924 ft | 435 kts | 311° |
| 2026-04-21 02:43 | -22.09909 | -47.93086 | 33257 ft | 434 kts | 311° |
| 2026-04-21 02:43 | -22.07806 | -47.95421 | 33572 ft | 433 kts | 311° |
| 2026-04-21 02:43 | -22.05738 | -47.97716 | 33875 ft | 432 kts | 311° |
| 2026-04-21 02:43 | -22.03637 | -48.00047 | 34089 ft | 432 kts | 311° |
| 2026-04-21 02:44 | -22.01543 | -48.02370 | 34089 ft | 431 kts | 311° |
| 2026-04-21 02:44 | -21.97342 | -48.07024 | 34088 ft | 435 kts | 311° |
| 2026-04-21 02:45 | -21.93091 | -48.11737 | 34078 ft | 447 kts | 311° |
| 2026-04-21 02:45 | -21.88704 | -48.16590 | 34071 ft | 457 kts | 311° |
| 2026-04-21 02:46 | -21.84201 | -48.21557 | 34065 ft | 460 kts | 311° |
| 2026-04-21 02:46 | -21.79737 | -48.26471 | 34067 ft | 460 kts | 311° |
| 2026-04-21 02:47 | -21.75266 | -48.31393 | 34062 ft | 460 kts | 311° |
| 2026-04-21 02:47 | -21.70799 | -48.36311 | 34056 ft | 459 kts | 311° |
| 2026-04-21 02:48 | -21.66332 | -48.41224 | 34054 ft | 459 kts | 311° |
| 2026-04-21 02:48 | -21.61892 | -48.46105 | 34050 ft | 459 kts | 311° |
| 2026-04-21 02:49 | -21.57421 | -48.51015 | 34046 ft | 460 kts | 311° |
| 2026-04-21 02:49 | -21.52942 | -48.55930 | 34042 ft | 460 kts | 311° |
| 2026-04-21 02:50 | -21.48457 | -48.60844 | 34040 ft | 460 kts | 311° |
| 2026-04-21 02:50 | -21.43992 | -48.65736 | 34040 ft | 460 kts | 312° |
| 2026-04-21 02:51 | -21.39490 | -48.70661 | 34040 ft | 459 kts | 312° |
| 2026-04-21 02:51 | -21.35014 | -48.75554 | 34038 ft | 459 kts | 312° |
| 2026-04-21 02:52 | -21.30572 | -48.80409 | 34033 ft | 459 kts | 312° |
| 2026-04-21 02:52 | -21.26091 | -48.85303 | 34033 ft | 459 kts | 312° |
| 2026-04-21 02:53 | -21.21602 | -48.90197 | 34034 ft | 460 kts | 312° |
| 2026-04-21 02:53 | -21.17108 | -48.95088 | 34031 ft | 460 kts | 312° |
| 2026-04-21 02:54 | -21.12608 | -48.99987 | 34029 ft | 461 kts | 311° |
| 2026-04-21 02:54 | -21.08143 | -49.04847 | 34027 ft | 460 kts | 311° |
| 2026-04-21 02:55 | -21.03655 | -49.09730 | 34027 ft | 459 kts | 311° |
| 2026-04-21 02:55 | -20.99174 | -49.14605 | 34024 ft | 459 kts | 311° |
| 2026-04-21 02:56 | -20.94694 | -49.19473 | 34023 ft | 458 kts | 312° |
| 2026-04-21 02:56 | -20.87962 | -49.26778 | 34031 ft | 459 kts | 312° |
| 2026-04-21 02:57 | -20.83478 | -49.31637 | 34038 ft | 460 kts | 312° |
| 2026-04-21 02:57 | -20.78980 | -49.36509 | 34040 ft | 460 kts | 312° |
| 2026-04-21 02:58 | -20.74481 | -49.41375 | 34042 ft | 460 kts | 311° |
| 2026-04-21 02:58 | -20.70022 | -49.46195 | 34041 ft | 459 kts | 311° |
| 2026-04-21 02:59 | -20.65537 | -49.51040 | 34037 ft | 458 kts | 312° |
| 2026-04-21 02:59 | -20.61054 | -49.55880 | 34033 ft | 458 kts | 312° |
| 2026-04-21 03:00 | -20.56568 | -49.60717 | 34033 ft | 458 kts | 312° |
| 2026-04-21 03:00 | -20.52073 | -49.65559 | 34033 ft | 459 kts | 312° |
| 2026-04-21 03:01 | -20.47558 | -49.70417 | 34034 ft | 459 kts | 312° |
| 2026-04-21 03:01 | -20.43095 | -49.75217 | 34033 ft | 458 kts | 312° |
| 2026-04-21 03:02 | -20.38599 | -49.80046 | 34031 ft | 458 kts | 312° |
| 2026-04-21 03:02 | -20.34103 | -49.84869 | 34027 ft | 458 kts | 312° |
| 2026-04-21 03:03 | -20.29615 | -49.89685 | 34024 ft | 457 kts | 312° |
| 2026-04-21 03:03 | -20.25127 | -49.94495 | 34022 ft | 457 kts | 312° |
| 2026-04-21 03:04 | -20.20671 | -49.99268 | 34020 ft | 457 kts | 312° |
| 2026-04-21 03:04 | -20.16184 | -50.04069 | 34018 ft | 457 kts | 311° |
| 2026-04-21 03:05 | -20.11693 | -50.08870 | 34018 ft | 457 kts | 311° |
| 2026-04-21 03:05 | -20.07205 | -50.13667 | 34017 ft | 457 kts | 311° |
| 2026-04-21 03:06 | -20.02718 | -50.18460 | 34009 ft | 457 kts | 311° |
| 2026-04-21 03:06 | -19.98223 | -50.23251 | 33999 ft | 457 kts | 312° |
| 2026-04-21 03:07 | -19.93725 | -50.28030 | 33994 ft | 457 kts | 312° |
| 2026-04-21 03:07 | -19.89239 | -50.32800 | 33990 ft | 458 kts | 312° |
| 2026-04-21 03:08 | -19.84721 | -50.37603 | 33991 ft | 458 kts | 311° |
| 2026-04-21 03:08 | -19.80217 | -50.42387 | 33990 ft | 458 kts | 311° |
| 2026-04-21 03:09 | -19.75743 | -50.47140 | 33988 ft | 458 kts | 311° |
| 2026-04-21 03:09 | -19.71237 | -50.51920 | 33985 ft | 457 kts | 311° |
| 2026-04-21 03:10 | -19.66739 | -50.56706 | 33988 ft | 457 kts | 310° |
| 2026-04-21 03:10 | -19.62516 | -50.61735 | 33987 ft | 456 kts | 307° |
| 2026-04-21 03:11 | -19.58387 | -50.66834 | 33989 ft | 457 kts | 307° |
| 2026-04-21 03:11 | -19.54235 | -50.71959 | 33988 ft | 457 kts | 307° |
| 2026-04-21 03:12 | -19.50121 | -50.77034 | 33983 ft | 457 kts | 307° |
| 2026-04-21 03:12 | -19.45976 | -50.82141 | 33985 ft | 457 kts | 307° |
| 2026-04-21 03:13 | -19.41830 | -50.87244 | 33987 ft | 457 kts | 307° |
| 2026-04-21 03:13 | -19.37686 | -50.92338 | 33986 ft | 456 kts | 307° |
| 2026-04-21 03:14 | -19.33541 | -50.97433 | 33988 ft | 456 kts | 307° |
| 2026-04-21 03:14 | -19.29391 | -51.02528 | 33992 ft | 457 kts | 307° |
| 2026-04-21 03:15 | -19.25244 | -51.07613 | 33994 ft | 456 kts | 307° |
| 2026-04-21 03:15 | -19.21093 | -51.12703 | 33996 ft | 457 kts | 307° |
| 2026-04-21 03:16 | -19.16970 | -51.17749 | 33994 ft | 457 kts | 307° |
| 2026-04-21 03:16 | -19.12820 | -51.22826 | 33992 ft | 455 kts | 307° |
| 2026-04-21 03:17 | -19.08678 | -51.27891 | 33990 ft | 455 kts | 307° |
| 2026-04-21 03:17 | -19.04533 | -51.32959 | 33997 ft | 455 kts | 307° |
| 2026-04-21 03:18 | -19.00382 | -51.38023 | 33997 ft | 455 kts | 307° |
| 2026-04-21 03:18 | -18.96237 | -51.43079 | 34001 ft | 455 kts | 307° |
| 2026-04-21 03:19 | -18.92095 | -51.48124 | 34004 ft | 454 kts | 307° |
| 2026-04-21 03:19 | -18.87947 | -51.53173 | 34007 ft | 454 kts | 306° |
| 2026-04-21 03:20 | -18.83827 | -51.58186 | 34012 ft | 454 kts | 307° |
| 2026-04-21 03:20 | -18.79684 | -51.63221 | 34018 ft | 454 kts | 307° |
| 2026-04-21 03:21 | -18.75520 | -51.68280 | 34024 ft | 453 kts | 307° |
| 2026-04-21 03:21 | -18.71408 | -51.73267 | 34030 ft | 453 kts | 307° |
| 2026-04-21 03:22 | -18.67267 | -51.78290 | 34034 ft | 453 kts | 307° |
| 2026-04-21 03:22 | -18.63128 | -51.83308 | 34042 ft | 453 kts | 307° |
| 2026-04-21 03:23 | -18.58977 | -51.88329 | 34045 ft | 453 kts | 307° |
| 2026-04-21 03:23 | -18.54868 | -51.93300 | 34056 ft | 453 kts | 307° |
| 2026-04-21 03:24 | -18.50730 | -51.98301 | 34065 ft | 452 kts | 307° |
| 2026-04-21 03:24 | -18.46599 | -52.03291 | 34074 ft | 452 kts | 307° |
| 2026-04-21 03:25 | -18.42464 | -52.08280 | 34071 ft | 452 kts | 307° |
| 2026-04-21 03:25 | -18.38328 | -52.13266 | 34069 ft | 452 kts | 307° |
| 2026-04-21 03:26 | -18.34215 | -52.18224 | 34061 ft | 453 kts | 307° |
| 2026-04-21 03:26 | -18.30063 | -52.23222 | 34050 ft | 454 kts | 307° |
| 2026-04-21 03:27 | -18.25907 | -52.28221 | 34040 ft | 454 kts | 307° |
| 2026-04-21 03:27 | -18.21750 | -52.33216 | 34035 ft | 453 kts | 307° |
| 2026-04-21 03:28 | -18.17592 | -52.38209 | 34036 ft | 453 kts | 307° |
| 2026-04-21 03:28 | -18.13463 | -52.43164 | 34038 ft | 453 kts | 307° |
| 2026-04-21 03:29 | -18.09300 | -52.48157 | 34044 ft | 453 kts | 307° |
| 2026-04-21 03:29 | -18.05127 | -52.53156 | 34046 ft | 454 kts | 307° |
| 2026-04-21 03:30 | -18.00984 | -52.58119 | 34051 ft | 454 kts | 307° |
| 2026-04-21 03:30 | -17.96804 | -52.63119 | 34058 ft | 455 kts | 307° |
| 2026-04-21 03:31 | -17.92615 | -52.68126 | 34060 ft | 456 kts | 307° |
| 2026-04-21 03:31 | -17.88428 | -52.73127 | 34066 ft | 456 kts | 307° |
| 2026-04-21 03:32 | -17.84248 | -52.78115 | 34069 ft | 456 kts | 307° |
| 2026-04-21 03:32 | -17.80061 | -52.83107 | 34074 ft | 455 kts | 307° |
| 2026-04-21 03:33 | -17.75877 | -52.88095 | 34073 ft | 456 kts | 307° |
| 2026-04-21 03:33 | -17.71692 | -52.93078 | 34070 ft | 455 kts | 307° |
| 2026-04-21 03:34 | -17.67499 | -52.98068 | 34071 ft | 456 kts | 307° |
| 2026-04-21 03:34 | -17.63294 | -53.03069 | 34067 ft | 457 kts | 307° |
| 2026-04-21 03:35 | -17.59086 | -53.08068 | 34060 ft | 457 kts | 307° |
| 2026-04-21 03:35 | -17.54905 | -53.13031 | 34059 ft | 457 kts | 307° |
| 2026-04-21 03:36 | -17.50696 | -53.18022 | 34050 ft | 456 kts | 307° |
| 2026-04-21 03:36 | -17.46490 | -53.23007 | 34050 ft | 456 kts | 307° |
| 2026-04-21 03:37 | -17.42285 | -53.27990 | 34049 ft | 456 kts | 307° |
| 2026-04-21 03:37 | -17.38074 | -53.32977 | 34044 ft | 457 kts | 307° |
| 2026-04-21 03:38 | -17.33852 | -53.37970 | 34044 ft | 457 kts | 307° |
| 2026-04-21 03:38 | -17.29663 | -53.42922 | 34038 ft | 458 kts | 307° |
| 2026-04-21 03:39 | -17.25438 | -53.47914 | 34039 ft | 457 kts | 308° |
| 2026-04-21 03:39 | -17.21217 | -53.52898 | 34043 ft | 457 kts | 307° |
| 2026-04-21 03:40 | -17.16997 | -53.57878 | 34043 ft | 457 kts | 307° |
| 2026-04-21 03:40 | -17.12795 | -53.62868 | 34046 ft | 456 kts | 306° |
| 2026-04-21 03:41 | -17.08997 | -53.68151 | 34047 ft | 454 kts | 300° |
| 2026-04-21 03:41 | -17.05782 | -53.73808 | 34046 ft | 452 kts | 295° |
| 2026-04-21 03:42 | -17.02773 | -53.79579 | 34041 ft | 452 kts | 295° |
| 2026-04-21 03:42 | -16.99767 | -53.85344 | 34037 ft | 452 kts | 295° |
| 2026-04-21 03:43 | -16.96777 | -53.91060 | 34034 ft | 451 kts | 295° |
| 2026-04-21 03:43 | -16.93768 | -53.96806 | 34029 ft | 451 kts | 295° |
| 2026-04-21 03:44 | -16.90757 | -54.02546 | 34025 ft | 451 kts | 295° |
| 2026-04-21 03:44 | -16.87748 | -54.08275 | 34018 ft | 451 kts | 295° |
| 2026-04-21 03:45 | -16.84731 | -54.14020 | 34006 ft | 452 kts | 295° |
| 2026-04-21 03:45 | -16.81707 | -54.19772 | 33992 ft | 452 kts | 295° |
| 2026-04-21 03:46 | -16.78679 | -54.25524 | 33981 ft | 452 kts | 295° |
| 2026-04-21 03:46 | -16.75653 | -54.31268 | 33973 ft | 451 kts | 295° |
| 2026-04-21 03:47 | -16.74141 | -54.34138 | 33747 ft | 452 kts | 295° |
| 2026-04-21 03:47 | -16.72626 | -54.37011 | 33456 ft | 452 kts | 295° |
| 2026-04-21 03:47 | -16.71106 | -54.39894 | 33090 ft | 454 kts | 295° |
| 2026-04-21 03:47 | -16.69606 | -54.42738 | 32587 ft | 455 kts | 295° |
| 2026-04-21 03:48 | -16.68081 | -54.45628 | 32010 ft | 456 kts | 295° |
| 2026-04-21 03:48 | -16.66554 | -54.48523 | 31343 ft | 456 kts | 295° |
| 2026-04-21 03:48 | -16.65026 | -54.51417 | 30637 ft | 457 kts | 295° |
| 2026-04-21 03:48 | -16.63497 | -54.54313 | 29942 ft | 456 kts | 295° |
| 2026-04-21 03:49 | -16.61977 | -54.57188 | 29473 ft | 451 kts | 296° |
| 2026-04-21 03:49 | -16.60474 | -54.60027 | 29002 ft | 445 kts | 296° |
| 2026-04-21 03:49 | -16.58986 | -54.62839 | 28531 ft | 440 kts | 296° |
| 2026-04-21 03:49 | -16.57523 | -54.65627 | 28060 ft | 436 kts | 296° |
| 2026-04-21 03:50 | -16.56107 | -54.68382 | 27580 ft | 432 kts | 295° |
| 2026-04-21 03:50 | -16.54699 | -54.71138 | 27102 ft | 428 kts | 295° |
| 2026-04-21 03:50 | -16.53309 | -54.73862 | 26624 ft | 425 kts | 296° |
| 2026-04-21 03:50 | -16.51928 | -54.76564 | 26151 ft | 421 kts | 296° |
| 2026-04-21 03:51 | -16.50557 | -54.79245 | 25674 ft | 418 kts | 296° |
| 2026-04-21 03:51 | -16.49194 | -54.81905 | 25197 ft | 415 kts | 296° |
| 2026-04-21 03:51 | -16.47860 | -54.84508 | 24725 ft | 412 kts | 296° |
| 2026-04-21 03:51 | -16.46515 | -54.87132 | 24250 ft | 410 kts | 296° |
| 2026-04-21 03:52 | -16.45179 | -54.89739 | 23772 ft | 407 kts | 296° |
| 2026-04-21 03:52 | -16.43849 | -54.92331 | 23300 ft | 405 kts | 296° |
| 2026-04-21 03:52 | -16.42526 | -54.94909 | 22831 ft | 403 kts | 297° |
| 2026-04-21 03:52 | -16.41210 | -54.97475 | 22365 ft | 401 kts | 297° |
| 2026-04-21 03:53 | -16.39898 | -55.00028 | 21896 ft | 399 kts | 297° |
| 2026-04-21 03:53 | -16.38593 | -55.02568 | 21426 ft | 397 kts | 297° |
| 2026-04-21 03:53 | -16.37295 | -55.05098 | 20960 ft | 395 kts | 297° |
| 2026-04-21 03:53 | -16.35999 | -55.07616 | 20491 ft | 394 kts | 298° |
| 2026-04-21 03:54 | -16.34709 | -55.10124 | 20025 ft | 393 kts | 298° |
| 2026-04-21 03:54 | -16.33422 | -55.12624 | 19560 ft | 391 kts | 298° |
| 2026-04-21 03:54 | -16.32141 | -55.15113 | 19097 ft | 389 kts | 298° |
| 2026-04-21 03:54 | -16.30883 | -55.17557 | 18644 ft | 388 kts | 298° |
| 2026-04-21 03:55 | -16.29613 | -55.20023 | 18183 ft | 386 kts | 299° |
| 2026-04-21 03:55 | -16.28349 | -55.22477 | 17723 ft | 384 kts | 299° |
| 2026-04-21 03:55 | -16.27090 | -55.24918 | 17266 ft | 382 kts | 300° |
| 2026-04-21 03:55 | -16.25836 | -55.27345 | 16816 ft | 380 kts | 299° |
| 2026-04-21 03:56 | -16.24587 | -55.29761 | 16356 ft | 379 kts | 299° |
| 2026-04-21 03:56 | -16.23342 | -55.32168 | 15887 ft | 377 kts | 299° |
| 2026-04-21 03:56 | -16.22101 | -55.34567 | 15412 ft | 376 kts | 299° |
| 2026-04-21 03:56 | -16.20865 | -55.36959 | 14934 ft | 375 kts | 299° |
| 2026-04-21 03:57 | -16.19633 | -55.39343 | 14455 ft | 373 kts | 299° |
| 2026-04-21 03:57 | -16.18407 | -55.41716 | 13982 ft | 372 kts | 299° |
| 2026-04-21 03:57 | -16.17185 | -55.44076 | 13511 ft | 370 kts | 299° |
| 2026-04-21 03:57 | -16.15970 | -55.46425 | 13034 ft | 368 kts | 299° |
| 2026-04-21 03:58 | -16.14761 | -55.48767 | 12556 ft | 367 kts | 299° |
| 2026-04-21 03:58 | -16.13572 | -55.51068 | 12064 ft | 366 kts | 299° |
| 2026-04-21 03:58 | -16.12367 | -55.53397 | 11555 ft | 366 kts | 299° |
| 2026-04-21 03:58 | -16.11162 | -55.55725 | 11042 ft | 366 kts | 299° |
| 2026-04-21 03:59 | -16.09957 | -55.58050 | 10558 ft | 364 kts | 299° |
| 2026-04-21 03:59 | -16.08763 | -55.60352 | 10213 ft | 359 kts | 299° |
| 2026-04-21 03:59 | -16.07587 | -55.62621 | 9874 ft | 354 kts | 299° |
| 2026-04-21 04:00 | -16.05276 | -55.67073 | 9171 ft | 343 kts | 300° |
| 2026-04-21 04:00 | -16.04167 | -55.69211 | 8791 ft | 338 kts | 300° |
| 2026-04-21 04:00 | -16.03059 | -55.71346 | 8400 ft | 332 kts | 300° |
| 2026-04-21 04:00 | -16.01972 | -55.73443 | 7869 ft | 328 kts | 300° |
| 2026-04-21 04:01 | -16.00891 | -55.75525 | 7278 ft | 327 kts | 300° |
| 2026-04-21 04:01 | -15.99817 | -55.77594 | 6712 ft | 325 kts | 300° |
| 2026-04-21 04:01 | -15.98742 | -55.79661 | 6223 ft | 326 kts | 300° |
| 2026-04-21 04:01 | -15.97663 | -55.81736 | 5774 ft | 327 kts | 300° |
| 2026-04-21 04:02 | -15.96591 | -55.83797 | 5532 ft | 319 kts | 301° |
| 2026-04-21 04:02 | -15.95552 | -55.85801 | 5368 ft | 310 kts | 301° |
| 2026-04-21 04:02 | -15.94540 | -55.87747 | 5208 ft | 301 kts | 301° |
| 2026-04-21 04:02 | -15.93556 | -55.89640 | 5051 ft | 293 kts | 301° |
| 2026-04-21 04:03 | -15.92601 | -55.91477 | 4899 ft | 285 kts | 301° |
| 2026-04-21 04:03 | -15.91673 | -55.93262 | 4746 ft | 276 kts | 301° |
| 2026-04-21 04:03 | -15.90769 | -55.94996 | 4595 ft | 268 kts | 301° |
| 2026-04-21 04:03 | -15.89892 | -55.96679 | 4445 ft | 261 kts | 301° |
| 2026-04-21 04:04 | -15.89044 | -55.98306 | 4301 ft | 253 kts | 303° |
| 2026-04-21 04:04 | -15.87954 | -55.99677 | 4137 ft | 239 kts | 331° |
| 2026-04-21 04:04 | -15.86523 | -56.00436 | 4016 ft | 230 kts | 338° |
| 2026-04-21 04:04 | -15.85104 | -56.01151 | 3930 ft | 222 kts | 336° |
| 2026-04-21 04:05 | -15.83721 | -56.01868 | 3883 ft | 221 kts | 336° |
| 2026-04-21 04:05 | -15.82346 | -56.02594 | 3842 ft | 220 kts | 336° |
| 2026-04-21 04:05 | -15.81019 | -56.03302 | 3761 ft | 209 kts | 336° |
| 2026-04-21 04:05 | -15.79732 | -56.03988 | 3474 ft | 205 kts | 336° |
| 2026-04-21 04:06 | -15.78495 | -56.04649 | 3182 ft | 193 kts | 336° |
| 2026-04-21 04:06 | -15.77340 | -56.05265 | 2950 ft | 179 kts | 336° |
| 2026-04-21 04:06 | -15.76269 | -56.05836 | 2695 ft | 166 kts | 336° |
| 2026-04-21 04:06 | -15.75278 | -56.06362 | 2465 ft | 154 kts | 335° |
| 2026-04-21 04:07 | -15.74324 | -56.06868 | 2279 ft | 153 kts | 335° |
| 2026-04-21 04:07 | -15.73375 | -56.07371 | 2102 ft | 152 kts | 335° |
| 2026-04-21 04:07 | -15.72430 | -56.07874 | 1919 ft | 152 kts | 334° |
| 2026-04-21 04:07 | -15.71501 | -56.08367 | 1734 ft | 151 kts | 334° |
| 2026-04-21 04:08 | -15.70562 | -56.08866 | 1540 ft | 151 kts | 334° |
| 2026-04-21 04:08 | -15.69625 | -56.09365 | 1342 ft | 150 kts | 334° |
| 2026-04-21 04:08 | -15.68689 | -56.09862 | 1142 ft | 150 kts | 333° |
| 2026-04-21 04:08 | -15.67758 | -56.10360 | 940 ft | 149 kts | 333° |
| 2026-04-21 04:09 | -15.66830 | -56.10851 | 762 ft | 149 kts | 333° |
| 2026-04-21 04:09 | -15.65908 | -56.11343 | 602 ft | 146 kts | 332° |
| 2026-04-21 04:09 | -15.65114 | -56.11766 | 608 ft | 109 kts | 333° |
| 2026-04-21 04:09 | -15.64680 | -56.11997 | 619 ft | 31 kts | 333° |
| 2026-04-21 04:10 | -15.64518 | -56.12083 | 624 ft | 21 kts | 333° |
| 2026-04-21 04:10 | -15.64434 | -56.12148 | 626 ft | 11 kts | 300° |
| 2026-04-21 04:10 | -15.64413 | -56.12147 | 626 ft | 6 kts | 116° |
| 2026-04-21 04:10 | -15.64461 | -56.12114 | 625 ft | 10 kts | 152° |
| 2026-04-21 04:11 | -15.64574 | -56.12052 | 622 ft | 24 kts | 152° |
| 2026-04-21 04:11 | -15.64727 | -56.11971 | 618 ft | 24 kts | 153° |
| 2026-04-21 04:11 | -15.64880 | -56.11889 | 614 ft | 24 kts | 153° |
| 2026-04-21 04:11 | -15.64995 | -56.11828 | 610 ft | 10 kts | 153° |
| 2026-04-21 04:12 | -15.65042 | -56.11813 | 609 ft | 6 kts | 197° |
| 2026-04-21 04:12 | -15.65074 | -56.11851 | 609 ft | 7 kts | 244° |
| 2026-04-21 04:12 | -15.65091 | -56.11887 | 610 ft | 3 kts | 246° |
| 2026-04-21 04:12 | -15.65086 | -56.11903 | 610 ft | 2 kts | 317° |
| 2026-04-21 04:13 | -15.65076 | -56.11912 | 610 ft | 1 kts | 300° |
| 2026-04-21 04:13 | -15.65076 | -56.11929 | 611 ft | 3 kts | 254° |
| 2026-04-21 04:13 | -15.65083 | -56.11948 | 611 ft | 2 kts | 246° |
| 2026-04-21 04:13 | -15.65088 | -56.11960 | 611 ft | 0 kts | 246° |
| 2026-04-21 04:14 | -15.65088 | -56.11961 | 611 ft | 0 kts | 246° |